»·PEaware :: COLT1 KLSV-KLSV

COLT1 :: KLSV-KLSV

FLIGHT INFORMATION

Flight Status: Arrived
Operator: Unknown
More flights by this operator :: More flights under this callsign
Pilot: Max D. (7509)
Aircraft: FAIRCHILD A-10 THUNDERBOLT 2
(A10)
More flights by this aircraft type
Origin: KLSV Nellis AFB
United States
Destination: KLSV Nellis AFB
United States
More flights between these airports :: More routes between these airports
Route: +TACW
File this flight plan on PilotEdge
Remarks:
Altitude:
(Current/Filed)
0ft
Speed:
(Current/Filed)
0kts
Departed: 14-Nov-16 09:28 PM
Arrived: 14-Nov-16 10:24 PM
Distance/Time
Traveled:
1nm/0:56
Distance/Time
To Go:
Arrived

Flight Plot

Page will automatically refresh every two minutes.

Flight plan parsing failed; only flown route is shown


Map Options




Map Legend


Flown Route
Filed Route
Departure Airport
Arrival Airport
Navaid (VOR, NDB)
Fix

Horizontal Profiles

Position Reports

Time Latitude Longitude Heading Altitude Ground
Speed
14-Nov-16 21:10 36.229899 -115.025777 267 1850ft 0kts
14-Nov-16 21:11 36.229895 -115.025790 254 1850ft 2kts
14-Nov-16 21:12 36.229402 -115.024020 265 1850ft 0kts
14-Nov-16 21:13 36.229402 -115.024021 265 1850ft 0kts
14-Nov-16 21:14 36.229402 -115.024021 265 1850ft 0kts
14-Nov-16 21:15 36.229402 -115.024021 265 1850ft 0kts
14-Nov-16 21:16 36.229402 -115.024021 265 1850ft 0kts
14-Nov-16 21:17 36.230685 -115.028563 271 1850ft 14kts
14-Nov-16 21:18 36.227356 -115.035271 218 1850ft 34kts
14-Nov-16 21:19 36.222918 -115.041323 311 1848ft 13kts
14-Nov-16 21:20 36.224225 -115.043087 311 1848ft 0kts
14-Nov-16 21:21 36.224404 -115.043322 312 1848ft 1kts
14-Nov-16 21:22 36.234471 -115.033804 40 1850ft 152kts
14-Nov-16 21:23 36.280912 -114.990307 358 2454ft 253kts
14-Nov-16 21:24 36.315553 -115.055908 260 3409ft 285kts
14-Nov-16 21:25 36.353578 -115.103863 347 6669ft 230kts
14-Nov-16 21:26 36.411774 -115.114842 347 7962ft 245kts
14-Nov-16 21:27 36.492467 -115.135647 349 9924ft 258kts
14-Nov-16 21:28 36.554084 -115.143259 357 11277ft 264kts
14-Nov-16 21:29 36.627333 -115.141024 0 12910ft 262kts
14-Nov-16 21:30 36.704467 -115.139667 356 13548ft 286kts
14-Nov-16 21:31 36.781430 -115.157641 344 14764ft 279kts
14-Nov-16 21:32 36.851815 -115.197728 325 15833ft 276kts
14-Nov-16 21:33 36.907662 -115.266904 303 16242ft 291kts
14-Nov-16 21:34 36.926016 -115.362473 244 16062ft 312kts
14-Nov-16 21:35 36.870129 -115.329052 117 14915ft 259kts
14-Nov-16 21:36 36.887030 -115.260641 9 12962ft 262kts
14-Nov-16 21:37 36.951665 -115.246625 8 14713ft 211kts
14-Nov-16 21:38 37.005802 -115.209657 68 15576ft 248kts
14-Nov-16 21:39 36.978871 -115.138282 157 16415ft 261kts
14-Nov-16 21:40 36.911844 -115.148939 214 17415ft 258kts
14-Nov-16 21:41 36.901379 -115.215681 349 17356ft 238kts
14-Nov-16 21:42 36.965135 -115.226504 351 18608ft 237kts
14-Nov-16 21:43 37.036084 -115.221796 29 19290ft 261kts
14-Nov-16 21:44 37.008395 -115.154586 195 17020ft 278kts
14-Nov-16 21:45 37.001960 -115.225430 324 13869ft 269kts
14-Nov-16 21:46 37.077500 -115.241278 351 13816ft 300kts
14-Nov-16 21:47 37.146193 -115.226476 130 13203ft 312kts
14-Nov-16 21:48 37.061189 -115.232399 179 8544ft 297kts
14-Nov-16 21:49 37.000352 -115.186071 145 4323ft 220kts
14-Nov-16 21:50 36.937237 -115.201424 200 6476ft 232kts
14-Nov-16 21:51 36.972287 -115.220304 6 4592ft 268kts
14-Nov-16 21:52 37.038050 -115.221300 324 4650ft 225kts
14-Nov-16 21:53 37.042457 -115.206430 173 3945ft 261kts
14-Nov-16 21:54 36.982587 -115.200587 177 4973ft 207kts
14-Nov-16 21:55 36.931420 -115.198817 161 9211ft 170kts
14-Nov-16 21:56 36.949664 -115.167641 6 11598ft 195kts
14-Nov-16 21:57 37.004745 -115.172454 329 14199ft 218kts
14-Nov-16 21:58 37.052205 -115.234308 294 15347ft 281kts
14-Nov-16 21:59 37.053929 -115.336936 247 15506ft 321kts
14-Nov-16 22:00 36.999385 -115.426369 220 15713ft 322kts
14-Nov-16 22:01 36.918883 -115.447320 114 14821ft 312kts
14-Nov-16 22:02 36.925093 -115.361671 86 14985ft 250kts
14-Nov-16 22:03 36.925365 -115.263893 66 15197ft 297kts
14-Nov-16 22:04 36.989043 -115.240638 320 14968ft 275kts
14-Nov-16 22:05 36.989108 -115.322307 215 14980ft 267kts
14-Nov-16 22:06 36.926511 -115.301124 108 14992ft 277kts
14-Nov-16 22:07 36.885018 -115.233446 171 16429ft 288kts
14-Nov-16 22:08 36.806584 -115.203914 156 17916ft 288kts
14-Nov-16 22:09 36.731602 -115.151320 144 17370ft 317kts
14-Nov-16 22:10 36.662644 -115.089665 142 16993ft 313kts
14-Nov-16 22:11 36.587825 -115.038604 151 16693ft 304kts
14-Nov-16 22:12 36.507638 -114.983917 148 13004ft 324kts
14-Nov-16 22:13 36.434242 -114.944296 170 9083ft 275kts
14-Nov-16 22:14 36.360915 -114.940057 187 5626ft 241kts
14-Nov-16 22:15 36.305587 -114.960686 213 3581ft 190kts
14-Nov-16 22:16 36.269033 -114.996620 219 2586ft 157kts
14-Nov-16 22:17 36.240197 -115.027594 219 1854ft 103kts
14-Nov-16 22:18 36.231401 -115.034286 130 1850ft 12kts
14-Nov-16 22:19 36.230706 -115.029751 89 1850ft 16kts
14-Nov-16 22:20 36.229999 -115.024688 157 1851ft 5kts
14-Nov-16 22:21 36.229868 -115.024848 266 1850ft 0kts
14-Nov-16 22:22 36.229868 -115.024848 266 1850ft 0kts
14-Nov-16 22:23 36.229868 -115.024848 266 1850ft 0kts
14-Nov-16 22:24 36.229868 -115.024848 266 1850ft 0kts
14-Nov-16 22:25 36.229868 -115.024848 266 1850ft 0kts
14-Nov-16 22:26 36.229868 -115.024848 266 1850ft 0kts
14-Nov-16 22:27 36.229868 -115.024848 266 1850ft 0kts
14-Nov-16 22:28 36.229868 -115.024848 266 1850ft 0kts

Navigation Log

Ident Type
Flight plan parsing failed, navigation log unavailable